• Join FlightAware (Why Join?)
  • Login
  • US Flag 
10:23PM EDT


 

Airport Tracker/Info


-or-


 

Live Flight TrackerFlight Track Log ✈ N4508X ✈ 16-Nov-2013 ✈ KMGJ - KHPN

Flight Track Log - Related Links

Times and Time Zones

All times are in EST time to prevent confusion due to time zone crossing. See the N4508X flight status page for this flight to view local times or setup timezone preferences in your user account.

Time Position Orientation Groundspeed Altitude Reporting Facility
EST Latitude Longitude Course Direction KTS MPH feet Rate Location/Type
12:00PM 41.5000 -74.0667 143° Southeast 111 128 3,000  Level New York TRACON
12:01PM 41.4833 -74.0167 114° Southeast 116 133 3,100 420 Climbing New York TRACON
12:02PM 41.4667 -73.9833 124° Southeast 99 114 4,000 420 Climbing New York TRACON
12:03PM 41.4667 -73.9333 90° East 130 150 4,000  Level New York TRACON
12:04PM 41.2770 -73.9704 148° Southeast  Level Estimated
12:04PM 41.4500 -73.9000 124° Southeast 116 133 4,100  Level New York TRACON
12:05PM 41.2970 -73.9043 68° East  Level FlightAware Approximate
12:05PM 41.4167 -73.8667 143° Southeast 116 133 4,000  Level New York TRACON
12:06PM 41.2520 -73.8657 143° Southeast  Level Estimated
12:06PM 41.4000 -73.8500 143° Southeast 121 139 3,500  Level New York TRACON
12:07PM 41.3667 -73.8167 143° Southeast 116 133 3,000 -300 Descending New York TRACON
12:08PM 41.3500 -73.8000 143° Southeast 110 127 3,000  Level New York TRACON
12:09PM 41.3167 -73.7667 143° Southeast 111 128 3,100 60 Climbing New York TRACON
12:10PM 41.3000 -73.7500 143° Southeast 119 137 3,200  Climbing New York TRACON
12:11PM 41.2667 -73.7167 143° Southeast 126 145 3,100 -240 Descending New York TRACON
12:12PM 41.2333 -73.7000 159° South 122 140 2,700 -540 Descending New York TRACON
12:13PM 41.2167 -73.6667 124° Southeast 117 135 2,100 -360 Descending New York TRACON
12:14PM 41.1833 -73.6500 159° South 111 128 2,000  Descending New York TRACON
12:15PM 41.1500 -73.6333 159° South 107 123 2,100  Climbing New York TRACON
12:16PM 41.1333 -73.6167 143° Southeast 108 124 2,100 -60 Level New York TRACON
12:17PM 41.1000 -73.6000 159° South 113 130 2,000  Descending New York TRACON
12:18PM 41.0833 -73.5833 143° Southeast 107 123 2,100  Climbing New York TRACON
12:19PM 41.0500 -73.5667 159° South 121 139 2,100  Level New York TRACON
12:20PM 41.0167 -73.5500 159° South 113 130 2,200  Climbing New York TRACON
12:21PM 40.9833 -73.5333 159° South 117 135 2,100 -60 Descending New York TRACON
12:22PM 40.9500 -73.5333 180° South 118 136 2,100 -60 Level New York TRACON
12:23PM 40.9500 -73.5667 270° West 110 127 2,000  Descending New York TRACON
12:24PM 40.9500 -73.6000 270° West 104 120 2,100  Climbing New York TRACON
12:25PM 40.9667 -73.6333 304° West 106 122 2,100  Level New York TRACON
12:26PM 40.9833 -73.6500 323° Northwest 104 120 2,100 -300 Level New York TRACON
12:27PM 41.0167 -73.6667 339° North 95 109 1,600 -540 Descending New York TRACON
12:28PM 41.0333 -73.6833 323° Northwest 98 113 1,100 -480 Descending New York TRACON
12:30PM 41.0667 -73.7000 252° West  Level FlightAware Approximate